sensor_id;sensor_type;location;lat;lon;timestamp;pressure;altitude;pressure_sealevel;temperature;humidity
9277;BME280;4676;42.678;23.244;2022-12-29T00:02:09;94970.84;;;4.75;100.00
9277;BME280;4676;42.678;23.244;2022-12-29T00:04:35;94974.22;;;4.74;100.00
9277;BME280;4676;42.678;23.244;2022-12-29T00:07:04;94975.88;;;4.75;100.00
9277;BME280;4676;42.678;23.244;2022-12-29T00:09:31;94979.25;;;4.74;100.00
9277;BME280;4676;42.678;23.244;2022-12-29T00:11:58;94985.09;;;4.76;100.00
9277;BME280;4676;42.678;23.244;2022-12-29T00:14:25;94979.25;;;4.74;100.00
9277;BME280;4676;42.678;23.244;2022-12-29T00:17:09;94975.03;;;4.72;100.00
9277;BME280;4676;42.678;23.244;2022-12-29T00:19:36;94987.63;;;4.69;100.00
9277;BME280;4676;42.678;23.244;2022-12-29T00:22:22;94996.81;;;4.70;100.00
9277;BME280;4676;42.678;23.244;2022-12-29T00:25:08;94999.31;;;4.73;100.00
9277;BME280;4676;42.678;23.244;2022-12-29T00:27:53;94999.31;;;4.74;100.00
9277;BME280;4676;42.678;23.244;2022-12-29T00:30:36;94988.38;;;4.87;100.00
9277;BME280;4676;42.678;23.244;2022-12-29T00:33:22;95000.16;;;4.78;100.00
9277;BME280;4676;42.678;23.244;2022-12-29T00:36:12;94988.41;;;4.75;100.00
9277;BME280;4676;42.678;23.244;2022-12-29T00:38:44;95003.50;;;4.81;100.00
9277;BME280;4676;42.678;23.244;2022-12-29T00:41:29;94995.91;;;4.90;100.00
9277;BME280;4676;42.678;23.244;2022-12-29T00:44:13;95010.16;;;4.84;100.00
9277;BME280;4676;42.678;23.244;2022-12-29T00:46:41;95007.66;;;4.79;100.00
9277;BME280;4676;42.678;23.244;2022-12-29T00:49:10;95019.41;;;4.73;100.00
9277;BME280;4676;42.678;23.244;2022-12-29T00:52:01;95007.66;;;4.88;100.00
9277;BME280;4676;42.678;23.244;2022-12-29T00:54:32;95009.38;;;4.73;100.00
9277;BME280;4676;42.678;23.244;2022-12-29T00:56:59;95007.72;;;4.67;100.00
9277;BME280;4676;42.678;23.244;2022-12-29T00:59:26;95008.53;;;4.69;100.00
9277;BME280;4676;42.678;23.244;2022-12-29T01:01:53;95011.03;;;4.81;100.00
9277;BME280;4676;42.678;23.244;2022-12-29T01:04:22;95007.69;;;4.76;100.00
9277;BME280;4676;42.678;23.244;2022-12-29T01:06:49;94995.16;;;4.69;100.00
9277;BME280;4676;42.678;23.244;2022-12-29T01:09:16;95001.84;;;4.73;100.00
9277;BME280;4676;42.678;23.244;2022-12-29T01:12:01;95001.03;;;4.63;100.00
9277;BME280;4676;42.678;23.244;2022-12-29T01:14:28;95008.56;;;4.66;100.00
9277;BME280;4676;42.678;23.244;2022-12-29T01:16:55;94996.03;;;4.60;100.00
9277;BME280;4676;42.678;23.244;2022-12-29T01:19:22;95000.22;;;4.52;100.00
9277;BME280;4676;42.678;23.244;2022-12-29T01:21:49;95002.72;;;4.47;100.00
9277;BME280;4676;42.678;23.244;2022-12-29T01:24:17;94986.03;;;4.37;100.00
9277;BME280;4676;42.678;23.244;2022-12-29T01:26:45;94994.41;;;4.38;100.00
9277;BME280;4676;42.678;23.244;2022-12-29T01:29:13;94991.91;;;4.39;100.00
9277;BME280;4676;42.678;23.244;2022-12-29T01:31:40;94991.91;;;4.39;100.00
9277;BME280;4676;42.678;23.244;2022-12-29T01:34:07;94984.38;;;4.39;100.00
9277;BME280;4676;42.678;23.244;2022-12-29T01:36:34;94988.53;;;4.39;100.00
9277;BME280;4676;42.678;23.244;2022-12-29T01:39:01;94980.16;;;4.49;100.00
9277;BME280;4676;42.678;23.244;2022-12-29T01:41:28;94980.16;;;4.46;100.00
9277;BME280;4676;42.678;23.244;2022-12-29T01:43:56;94978.50;;;4.46;100.00
9277;BME280;4676;42.678;23.244;2022-12-29T01:46:29;94974.28;;;4.48;100.00
9277;BME280;4676;42.678;23.244;2022-12-29T01:49:01;94975.16;;;4.46;100.00
9277;BME280;4676;42.678;23.244;2022-12-29T01:51:31;94961.78;;;4.39;100.00
9277;BME280;4676;42.678;23.244;2022-12-29T01:54:02;94972.66;;;4.34;100.00
9277;BME280;4676;42.678;23.244;2022-12-29T01:56:32;94973.47;;;4.37;100.00
9277;BME280;4676;42.678;23.244;2022-12-29T01:59:01;94967.66;;;4.35;100.00
9277;BME280;4676;42.678;23.244;2022-12-29T02:01:31;94965.13;;;4.34;100.00
9277;BME280;4676;42.678;23.244;2022-12-29T02:03:58;94957.59;;;4.34;100.00
9277;BME280;4676;42.678;23.244;2022-12-29T02:06:28;94935.91;;;4.21;100.00
9277;BME280;4676;42.678;23.244;2022-12-29T02:08:56;94955.88;;;4.43;100.00
9277;BME280;4676;42.678;23.244;2022-12-29T02:11:25;94930.00;;;4.29;100.00
9277;BME280;4676;42.678;23.244;2022-12-29T02:13:52;94953.38;;;4.43;100.00
9277;BME280;4676;42.678;23.244;2022-12-29T02:16:38;94952.53;;;4.47;100.00
9277;BME280;4676;42.678;23.244;2022-12-29T02:19:25;94954.19;;;4.56;100.00
9277;BME280;4676;42.678;23.244;2022-12-29T02:22:08;94942.47;;;4.58;100.00
9277;BME280;4676;42.678;23.244;2022-12-29T02:24:51;94951.69;;;4.54;100.00
9277;BME280;4676;42.678;23.244;2022-12-29T02:27:50;94960.06;;;4.55;100.00
9277;BME280;4676;42.678;23.244;2022-12-29T02:30:42;94953.38;;;4.48;100.00
9277;BME280;4676;42.678;23.244;2022-12-29T02:33:21;94960.91;;;4.45;100.00
9277;BME280;4676;42.678;23.244;2022-12-29T02:35:54;94954.25;;;4.35;100.00
9277;BME280;4676;42.678;23.244;2022-12-29T02:41:19;94950.91;;;4.36;100.00
9277;BME280;4676;42.678;23.244;2022-12-29T02:43:50;94960.09;;;4.41;100.00
9277;BME280;4676;42.678;23.244;2022-12-29T02:46:23;94935.03;;;4.29;100.00
9277;BME280;4676;42.678;23.244;2022-12-29T02:49:01;94962.63;;;4.43;100.00
9277;BME280;4676;42.678;23.244;2022-12-29T02:51:34;94954.25;;;4.39;100.00
9277;BME280;4676;42.678;23.244;2022-12-29T02:54:03;94956.75;;;4.39;100.00
9277;BME280;4676;42.678;23.244;2022-12-29T02:56:47;94947.56;;;4.35;100.00
9277;BME280;4676;42.678;23.244;2022-12-29T02:59:15;94954.25;;;4.35;100.00
9277;BME280;4676;42.678;23.244;2022-12-29T03:01:59;94948.41;;;4.39;100.00
9277;BME280;4676;42.678;23.244;2022-12-29T03:04:54;94940.03;;;4.43;100.00
9277;BME280;4676;42.678;23.244;2022-12-29T03:07:32;94933.31;;;4.40;100.00
9277;BME280;4676;42.678;23.244;2022-12-29T03:10:12;94933.31;;;4.43;100.00
9277;BME280;4676;42.678;23.244;2022-12-29T03:12:47;94932.47;;;4.47;100.00
9277;BME280;4676;42.678;23.244;2022-12-29T03:15:35;94926.59;;;4.48;100.00
9277;BME280;4676;42.678;23.244;2022-12-29T03:18:30;94902.41;;;4.35;100.00
9277;BME280;4676;42.678;23.244;2022-12-29T03:21:02;94923.28;;;4.46;100.00
9277;BME280;4676;42.678;23.244;2022-12-29T03:23:31;94927.47;;;4.41;100.00
9277;BME280;4676;42.678;23.244;2022-12-29T03:26:02;94928.31;;;4.33;100.00
9277;BME280;4676;42.678;23.244;2022-12-29T03:28:35;94928.34;;;4.22;100.00
9277;BME280;4676;42.678;23.244;2022-12-29T03:31:03;94927.50;;;4.26;100.00
9277;BME280;4676;42.678;23.244;2022-12-29T03:33:32;94933.38;;;4.16;100.00
9277;BME280;4676;42.678;23.244;2022-12-29T03:36:03;94930.06;;;4.11;100.00
9277;BME280;4676;42.678;23.244;2022-12-29T03:38:35;94935.09;;;3.99;100.00
9277;BME280;4676;42.678;23.244;2022-12-29T03:41:07;94935.94;;;3.98;100.00
9277;BME280;4676;42.678;23.244;2022-12-29T03:43:35;94939.31;;;3.86;100.00
9277;BME280;4676;42.678;23.244;2022-12-29T03:46:02;94939.31;;;3.86;100.00
9277;BME280;4676;42.678;23.244;2022-12-29T03:48:29;94938.47;;;3.81;100.00
9277;BME280;4676;42.678;23.244;2022-12-29T03:50:57;94942.63;;;3.88;100.00
9277;BME280;4676;42.678;23.244;2022-12-29T03:53:24;94940.16;;;3.76;100.00
9277;BME280;4676;42.678;23.244;2022-12-29T03:55:50;94938.47;;;3.60;100.00
9277;BME280;4676;42.678;23.244;2022-12-29T03:58:17;94942.63;;;3.52;100.00
9277;BME280;4676;42.678;23.244;2022-12-29T04:00:44;94950.16;;;3.47;100.00
9277;BME280;4676;42.678;23.244;2022-12-29T04:03:11;94947.66;;;3.52;100.00
9277;BME280;4676;42.678;23.244;2022-12-29T04:05:37;94958.50;;;3.45;100.00
9277;BME280;4676;42.678;23.244;2022-12-29T04:08:05;94962.69;;;3.46;100.00
9277;BME280;4676;42.678;23.244;2022-12-29T04:10:32;94959.31;;;3.38;100.00
9277;BME280;4676;42.678;23.244;2022-12-29T04:12:59;94954.31;;;3.23;100.00
9277;BME280;4676;42.678;23.244;2022-12-29T04:15:25;94945.97;;;3.33;100.00
9277;BME280;4676;42.678;23.244;2022-12-29T04:17:52;94955.97;;;3.19;100.00
9277;BME280;4676;42.678;23.244;2022-12-29T04:20:19;94950.97;;;3.21;100.00
9277;BME280;4676;42.678;23.244;2022-12-29T04:23:04;94951.78;;;3.09;100.00
9277;BME280;4676;42.678;23.244;2022-12-29T04:25:33;94952.63;;;3.08;100.00
9277;BME280;4676;42.678;23.244;2022-12-29T04:28:00;94928.38;;;2.93;100.00
9277;BME280;4676;42.678;23.244;2022-12-29T04:30:26;94958.41;;;2.99;100.00
9277;BME280;4676;42.678;23.244;2022-12-29T04:32:53;94953.38;;;2.89;100.00
9277;BME280;4676;42.678;23.244;2022-12-29T04:35:20;94957.56;;;2.87;100.00
9277;BME280;4676;42.678;23.244;2022-12-29T04:37:46;94956.72;;;2.86;100.00
9277;BME280;4676;42.678;23.244;2022-12-29T04:40:13;94960.91;;;2.84;100.00
9277;BME280;4676;42.678;23.244;2022-12-29T04:42:41;94967.56;;;2.85;100.00
9277;BME280;4676;42.678;23.244;2022-12-29T04:45:09;94966.75;;;2.85;100.00
9277;BME280;4676;42.678;23.244;2022-12-29T04:47:36;94973.41;;;2.84;100.00
9277;BME280;4676;42.678;23.244;2022-12-29T04:50:03;94980.09;;;2.87;100.00
9277;BME280;4676;42.678;23.244;2022-12-29T04:52:30;94979.28;;;2.88;100.00
9277;BME280;4676;42.678;23.244;2022-12-29T04:54:56;94980.94;;;2.96;100.00
9277;BME280;4676;42.678;23.244;2022-12-29T04:57:23;94986.81;;;3.01;100.00
9277;BME280;4676;42.678;23.244;2022-12-29T04:59:51;94989.34;;;3.08;100.00
9277;BME280;4676;42.678;23.244;2022-12-29T05:02:18;94991.84;;;3.17;100.00
9277;BME280;4676;42.678;23.244;2022-12-29T05:04:45;94989.38;;;3.18;100.00
9277;BME280;4676;42.678;23.244;2022-12-29T05:07:12;94981.00;;;3.24;100.00
9277;BME280;4676;42.678;23.244;2022-12-29T05:09:39;94990.22;;;3.23;100.00
9277;BME280;4676;42.678;23.244;2022-12-29T05:12:05;94993.56;;;3.34;100.00
9277;BME280;4676;42.678;23.244;2022-12-29T05:14:32;94987.75;;;3.37;100.00
9277;BME280;4676;42.678;23.244;2022-12-29T05:17:00;94974.34;;;3.24;100.00
9277;BME280;4676;42.678;23.244;2022-12-29T05:19:27;95005.25;;;3.41;100.00
9277;BME280;4676;42.678;23.244;2022-12-29T05:21:54;94999.44;;;3.44;100.00
9277;BME280;4676;42.678;23.244;2022-12-29T05:24:20;94994.44;;;3.44;100.00
9277;BME280;4676;42.678;23.244;2022-12-29T05:26:47;94989.41;;;3.50;100.00
9277;BME280;4676;42.678;23.244;2022-12-29T05:29:14;94987.75;;;3.53;100.00
9277;BME280;4676;42.678;23.244;2022-12-29T05:31:41;94991.91;;;3.56;100.00
9277;BME280;4676;42.678;23.244;2022-12-29T05:34:10;94986.09;;;3.57;100.00
9277;BME280;4676;42.678;23.244;2022-12-29T05:36:37;94993.63;;;3.62;100.00
9277;BME280;4676;42.678;23.244;2022-12-29T05:39:04;94996.09;;;3.63;100.00
9277;BME280;4676;42.678;23.244;2022-12-29T05:41:32;94996.94;;;3.67;100.00
9277;BME280;4676;42.678;23.244;2022-12-29T05:43:59;94998.63;;;3.71;100.00
9277;BME280;4676;42.678;23.244;2022-12-29T05:46:26;95003.63;;;3.77;100.00
9277;BME280;4676;42.678;23.244;2022-12-29T05:48:52;94982.75;;;3.55;100.00
9277;BME280;4676;42.678;23.244;2022-12-29T05:51:21;94991.94;;;3.79;100.00
9277;BME280;4676;42.678;23.244;2022-12-29T05:53:48;94999.47;;;3.89;100.00
9277;BME280;4676;42.678;23.244;2022-12-29T05:56:15;94998.63;;;3.92;100.00
9277;BME280;4676;42.678;23.244;2022-12-29T05:58:42;95009.50;;;3.88;100.00
9277;BME280;4676;42.678;23.244;2022-12-29T06:01:09;95010.34;;;3.85;100.00
9277;BME280;4676;42.678;23.244;2022-12-29T06:03:35;95012.03;;;3.83;100.00
9277;BME280;4676;42.678;23.244;2022-12-29T06:06:02;95006.16;;;3.84;100.00
9277;BME280;4676;42.678;23.244;2022-12-29T06:08:30;95007.81;;;3.81;100.00
9277;BME280;4676;42.678;23.244;2022-12-29T06:10:57;95011.16;;;3.77;100.00
9277;BME280;4676;42.678;23.244;2022-12-29T06:13:24;95009.47;;;3.77;100.00
9277;BME280;4676;42.678;23.244;2022-12-29T06:15:51;95009.50;;;3.82;100.00
9277;BME280;4676;42.678;23.244;2022-12-29T06:18:18;95012.00;;;3.91;100.00
9277;BME280;4676;42.678;23.244;2022-12-29T06:20:44;95013.69;;;3.93;100.00
9277;BME280;4676;42.678;23.244;2022-12-29T06:23:11;95013.66;;;3.98;100.00
9277;BME280;4676;42.678;23.244;2022-12-29T06:25:40;94991.09;;;3.98;100.00
9277;BME280;4676;42.678;23.244;2022-12-29T06:28:06;95016.19;;;4.18;100.00
9277;BME280;4676;42.678;23.244;2022-12-29T06:30:33;95001.97;;;4.21;100.00
9277;BME280;4676;42.678;23.244;2022-12-29T06:33:00;95022.03;;;4.32;100.00
9277;BME280;4676;42.678;23.244;2022-12-29T06:35:27;95018.66;;;4.30;100.00
9277;BME280;4676;42.678;23.244;2022-12-29T06:37:53;95012.81;;;4.23;100.00
9277;BME280;4676;42.678;23.244;2022-12-29T06:40:20;95018.66;;;4.22;100.00
9277;BME280;4676;42.678;23.244;2022-12-29T06:42:49;95021.19;;;4.31;100.00
9277;BME280;4676;42.678;23.244;2022-12-29T06:45:16;95022.00;;;4.42;100.00
9277;BME280;4676;42.678;23.244;2022-12-29T06:47:43;95021.13;;;4.51;100.00
9277;BME280;4676;42.678;23.244;2022-12-29T06:50:10;95016.13;;;4.52;100.00
9277;BME280;4676;42.678;23.244;2022-12-29T06:52:37;95019.44;;;4.62;100.00
9277;BME280;4676;42.678;23.244;2022-12-29T06:55:04;95006.91;;;4.48;100.00
9277;BME280;4676;42.678;23.244;2022-12-29T06:57:31;95016.94;;;4.59;100.00
9277;BME280;4676;42.678;23.244;2022-12-29T06:59:59;95023.59;;;4.74;100.00
9277;BME280;4676;42.678;23.244;2022-12-29T07:02:26;95029.44;;;4.76;100.00
9277;BME280;4676;42.678;23.244;2022-12-29T07:04:52;95004.34;;;4.68;100.00
9277;BME280;4676;42.678;23.244;2022-12-29T07:07:19;95025.28;;;4.70;100.00
9277;BME280;4676;42.678;23.244;2022-12-29T07:09:46;95023.56;;;4.80;100.00
9277;BME280;4676;42.678;23.244;2022-12-29T07:12:13;95016.00;;;4.87;100.00
9277;BME280;4676;42.678;23.244;2022-12-29T07:14:40;95024.38;;;4.86;100.00
9277;BME280;4676;42.678;23.244;2022-12-29T07:17:08;95025.25;;;4.76;100.00
9277;BME280;4676;42.678;23.244;2022-12-29T07:19:35;95020.25;;;4.78;100.00
9277;BME280;4676;42.678;23.244;2022-12-29T07:22:02;95023.56;;;4.83;100.00
9277;BME280;4676;42.678;23.244;2022-12-29T07:24:28;95016.88;;;4.77;100.00
9277;BME280;4676;42.678;23.244;2022-12-29T07:26:55;95027.75;;;4.81;100.00
9277;BME280;4676;42.678;23.244;2022-12-29T07:29:22;95021.88;;;4.86;100.00
9277;BME280;4676;42.678;23.244;2022-12-29T07:31:50;95027.69;;;4.93;100.00
9277;BME280;4676;42.678;23.244;2022-12-29T07:34:18;94989.28;;;4.65;100.00
9277;BME280;4676;42.678;23.244;2022-12-29T07:36:44;95025.22;;;4.82;100.00
9277;BME280;4676;42.678;23.244;2022-12-29T07:39:11;95025.25;;;4.79;100.00
9277;BME280;4676;42.678;23.244;2022-12-29T07:41:38;95030.25;;;4.87;100.00
9277;BME280;4676;42.678;23.244;2022-12-29T07:44:05;95027.75;;;4.81;100.00
9277;BME280;4676;42.678;23.244;2022-12-29T07:46:32;95024.38;;;4.89;100.00
9277;BME280;4676;42.678;23.244;2022-12-29T07:48:58;95018.47;;;4.96;100.00
9277;BME280;4676;42.678;23.244;2022-12-29T07:51:26;95026.91;;;4.79;100.00
9277;BME280;4676;42.678;23.244;2022-12-29T07:53:53;95012.75;;;4.67;100.00
9277;BME280;4676;42.678;23.244;2022-12-29T07:56:20;95028.59;;;4.80;100.00
9277;BME280;4676;42.678;23.244;2022-12-29T07:58:46;95033.63;;;4.77;100.00
9277;BME280;4676;42.678;23.244;2022-12-29T08:01:13;95037.75;;;4.93;100.00
9277;BME280;4676;42.678;23.244;2022-12-29T08:03:40;95031.03;;;4.96;100.00
9277;BME280;4676;42.678;23.244;2022-12-29T08:06:09;95039.44;;;4.95;100.00
9277;BME280;4676;42.678;23.244;2022-12-29T08:08:37;95037.75;;;4.94;100.00
9277;BME280;4676;42.678;23.244;2022-12-29T08:11:04;95043.59;;;5.02;100.00
9277;BME280;4676;42.678;23.244;2022-12-29T08:13:31;95041.97;;;4.92;100.00
9277;BME280;4676;42.678;23.244;2022-12-29T08:15:58;95045.25;;;5.03;100.00
9277;BME280;4676;42.678;23.244;2022-12-29T08:18:25;95039.41;;;5.01;100.00
9277;BME280;4676;42.678;23.244;2022-12-29T08:20:51;95038.56;;;5.01;100.00
9277;BME280;4676;42.678;23.244;2022-12-29T08:23:18;95041.09;;;4.96;100.00
9277;BME280;4676;42.678;23.244;2022-12-29T08:25:46;95044.41;;;5.04;100.00
9277;BME280;4676;42.678;23.244;2022-12-29T08:28:13;95035.19;;;5.08;100.00
9277;BME280;4676;42.678;23.244;2022-12-29T08:30:39;95043.59;;;4.96;100.00
9277;BME280;4676;42.678;23.244;2022-12-29T08:33:06;95035.16;;;5.14;100.00
9277;BME280;4676;42.678;23.244;2022-12-29T08:35:33;95033.41;;;5.31;100.00
9277;BME280;4676;42.678;23.244;2022-12-29T08:38:00;95032.53;;;5.38;100.00
9277;BME280;4676;42.678;23.244;2022-12-29T08:40:26;95038.31;;;5.56;100.00
9277;BME280;4676;42.678;23.244;2022-12-29T08:42:54;95037.47;;;5.55;100.00
9277;BME280;4676;42.678;23.244;2022-12-29T08:45:21;95033.25;;;5.60;100.00
9277;BME280;4676;42.678;23.244;2022-12-29T08:47:48;95035.69;;;5.72;100.00
9277;BME280;4676;42.678;23.244;2022-12-29T08:50:15;95040.63;;;5.84;100.00
9277;BME280;4676;42.678;23.244;2022-12-29T08:52:41;95038.09;;;5.93;100.00
9277;BME280;4676;42.678;23.244;2022-12-29T08:55:08;95032.25;;;5.88;100.00
9277;BME280;4676;42.678;23.244;2022-12-29T08:57:35;95028.91;;;5.89;100.00
9277;BME280;4676;42.678;23.244;2022-12-29T09:00:05;95021.28;;;6.00;100.00
9277;BME280;4676;42.678;23.244;2022-12-29T09:02:32;95022.91;;;6.04;100.00
9277;BME280;4676;42.678;23.244;2022-12-29T09:04:58;95025.34;;;6.13;100.00
9277;BME280;4676;42.678;23.244;2022-12-29T09:07:26;95022.06;;;6.08;100.00
9277;BME280;4676;42.678;23.244;2022-12-29T09:09:52;95017.69;;;6.28;100.00
9277;BME280;4676;42.678;23.244;2022-12-29T09:12:19;95021.88;;;6.28;100.00
9277;BME280;4676;42.678;23.244;2022-12-29T09:14:46;95011.78;;;6.31;100.00
9277;BME280;4676;42.678;23.244;2022-12-29T09:19:43;95004.06;;;6.50;100.00
9277;BME280;4676;42.678;23.244;2022-12-29T09:22:09;95006.53;;;6.52;100.00
9277;BME280;4676;42.678;23.244;2022-12-29T09:24:36;95006.47;;;6.58;100.00
9277;BME280;4676;42.678;23.244;2022-12-29T09:27:03;95003.84;;;6.69;100.00
9277;BME280;4676;42.678;23.244;2022-12-29T09:29:29;94998.72;;;6.78;100.00
9277;BME280;4676;42.678;23.244;2022-12-29T09:31:56;94998.56;;;6.91;100.00
9277;BME280;4676;42.678;23.244;2022-12-29T09:34:23;94996.75;;;7.02;100.00
9277;BME280;4676;42.678;23.244;2022-12-29T09:36:51;94993.34;;;7.07;100.00
9277;BME280;4676;42.678;23.244;2022-12-29T09:39:18;94987.31;;;7.18;100.00
9277;BME280;4676;42.678;23.244;2022-12-29T09:41:50;94982.31;;;7.15;100.00
9277;BME280;4676;42.678;23.244;2022-12-29T09:44:23;94984.19;;;6.99;100.00
9277;BME280;4676;42.678;23.244;2022-12-29T09:46:53;94979.91;;;7.04;100.00
9277;BME280;4676;42.678;23.244;2022-12-29T09:49:25;94983.22;;;7.08;100.00
9277;BME280;4676;42.678;23.244;2022-12-29T09:51:59;94983.38;;;6.97;100.00
9277;BME280;4676;42.678;23.244;2022-12-29T09:54:37;94971.50;;;7.06;100.00
9277;BME280;4676;42.678;23.244;2022-12-29T09:57:13;94969.06;;;6.99;100.00
9277;BME280;4676;42.678;23.244;2022-12-29T09:59:42;94971.72;;;6.87;100.00
9277;BME280;4676;42.678;23.244;2022-12-29T10:02:27;94966.59;;;6.93;100.00
9277;BME280;4676;42.678;23.244;2022-12-29T10:04:55;94958.28;;;6.88;100.00
9277;BME280;4676;42.678;23.244;2022-12-29T10:07:36;94970.09;;;6.83;100.00
9277;BME280;4676;42.678;23.244;2022-12-29T10:10:18;94955.81;;;6.85;100.00
9277;BME280;4676;42.678;23.244;2022-12-29T10:12:57;94954.81;;;6.97;100.00
9277;BME280;4676;42.678;23.244;2022-12-29T10:15:40;94958.91;;;7.07;100.00
9277;BME280;4676;42.678;23.244;2022-12-29T10:18:33;94954.53;;;7.18;100.00
9277;BME280;4676;42.678;23.244;2022-12-29T10:21:06;94950.22;;;7.25;100.00
9277;BME280;4676;42.678;23.244;2022-12-29T10:23:40;94950.41;;;7.14;100.00
9277;BME280;4676;42.678;23.244;2022-12-29T10:26:12;94952.84;;;7.20;100.00
9277;BME280;4676;42.678;23.244;2022-12-29T10:28:43;94949.28;;;7.33;100.00
9277;BME280;4676;42.678;23.244;2022-12-29T10:31:14;94950.56;;;7.63;100.00
9277;BME280;4676;42.678;23.244;2022-12-29T10:33:42;94948.09;;;7.57;100.00
9277;BME280;4676;42.678;23.244;2022-12-29T10:36:14;94943.72;;;7.70;100.00
9277;BME280;4676;42.678;23.244;2022-12-29T10:38:48;94943.66;;;7.73;100.00
9277;BME280;4676;42.678;23.244;2022-12-29T10:41:21;94933.50;;;7.77;100.00
9277;BME280;4676;42.678;23.244;2022-12-29T10:43:51;94931.72;;;7.82;100.00
9277;BME280;4676;42.678;23.244;2022-12-29T10:46:21;94933.97;;;7.99;100.00
9277;BME280;4676;42.678;23.244;2022-12-29T10:48:50;94928.78;;;8.07;100.00
9277;BME280;4676;42.678;23.244;2022-12-29T10:51:21;94930.63;;;7.98;100.00
9277;BME280;4676;42.678;23.244;2022-12-29T10:53:51;94920.19;;;8.17;100.00
9277;BME280;4676;42.678;23.244;2022-12-29T10:56:27;94911.41;;;8.40;100.00
9277;BME280;4676;42.678;23.244;2022-12-29T10:58:59;94901.88;;;8.55;100.00
9277;BME280;4676;42.678;23.244;2022-12-29T11:01:42;94901.31;;;8.82;100.00
9277;BME280;4676;42.678;23.244;2022-12-29T11:04:28;94890.44;;;8.78;100.00
9277;BME280;4676;42.678;23.244;2022-12-29T11:07:00;94903.56;;;8.54;100.00
9277;BME280;4676;42.678;23.244;2022-12-29T11:09:31;94897.53;;;8.61;100.00
9277;BME280;4676;42.678;23.244;2022-12-29T11:11:58;94905.84;;;8.66;100.00
9277;BME280;4676;42.678;23.244;2022-12-29T11:14:27;94900.63;;;8.74;100.00
9277;BME280;4676;42.678;23.244;2022-12-29T11:16:58;94887.38;;;8.63;100.00
9277;BME280;4676;42.678;23.244;2022-12-29T11:19:27;94888.91;;;8.70;100.00
9277;BME280;4676;42.678;23.244;2022-12-29T11:22:12;94887.84;;;8.81;100.00
9277;BME280;4676;42.678;23.244;2022-12-29T11:24:46;94885.22;;;8.86;100.00
9277;BME280;4676;42.678;23.244;2022-12-29T11:27:15;94890.09;;;8.95;100.00
9277;BME280;4676;42.678;23.244;2022-12-29T11:29:43;94889.06;;;9.03;100.00
9277;BME280;4676;42.678;23.244;2022-12-29T11:32:12;94883.09;;;9.08;100.00
9277;BME280;4676;42.678;23.244;2022-12-29T11:34:43;94883.94;;;9.07;100.00
9277;BME280;4676;42.678;23.244;2022-12-29T11:37:12;94886.19;;;9.19;100.00
9277;BME280;4676;42.678;23.244;2022-12-29T11:39:45;94883.09;;;9.06;100.00
9277;BME280;4676;42.678;23.244;2022-12-29T11:42:17;94881.50;;;9.02;100.00
9277;BME280;4676;42.678;23.244;2022-12-29T11:44:47;94878.34;;;8.92;100.00
9277;BME280;4676;42.678;23.244;2022-12-29T11:47:23;94881.03;;;8.85;100.00
9277;BME280;4676;42.678;23.244;2022-12-29T11:49:55;94881.94;;;8.82;100.00
9277;BME280;4676;42.678;23.244;2022-12-29T11:52:24;94874.34;;;8.82;100.00
9277;BME280;4676;42.678;23.244;2022-12-29T11:54:54;94874.97;;;8.92;100.00
9277;BME280;4676;42.678;23.244;2022-12-29T11:57:22;94876.34;;;9.07;100.00
9277;BME280;4676;42.678;23.244;2022-12-29T11:59:51;94864.19;;;8.85;100.00
9277;BME280;4676;42.678;23.244;2022-12-29T12:02:35;94879.13;;;8.96;100.00
9277;BME280;4676;42.678;23.244;2022-12-29T12:05:09;94867.50;;;8.87;100.00
9277;BME280;4676;42.678;23.244;2022-12-29T12:07:40;94866.56;;;8.91;100.00
9277;BME280;4676;42.678;23.244;2022-12-29T12:10:16;94866.78;;;8.81;100.00
9277;BME280;4676;42.678;23.244;2022-12-29T12:12:48;94868.75;;;8.68;100.00
9277;BME280;4676;42.678;23.244;2022-12-29T12:15:21;94864.84;;;8.53;100.00
9277;BME280;4676;42.678;23.244;2022-12-29T12:17:52;94862.25;;;8.55;100.00
9277;BME280;4676;42.678;23.244;2022-12-29T12:20:22;94863.03;;;8.59;100.00
9277;BME280;4676;42.678;23.244;2022-12-29T12:22:59;94851.84;;;8.72;100.00
9277;BME280;4676;42.678;23.244;2022-12-29T12:25:34;94853.13;;;8.89;100.00
9277;BME280;4676;42.678;23.244;2022-12-29T12:28:10;94849.50;;;9.01;100.00
9277;BME280;4676;42.678;23.244;2022-12-29T12:30:40;94851.25;;;8.97;100.00
9277;BME280;4676;42.678;23.244;2022-12-29T12:33:16;94842.78;;;9.00;100.00
9277;BME280;4676;42.678;23.244;2022-12-29T12:35:53;94847.88;;;8.98;100.00
9277;BME280;4676;42.678;23.244;2022-12-29T12:38:29;94844.56;;;8.95;100.00
9277;BME280;4676;42.678;23.244;2022-12-29T12:41:08;94842.75;;;9.01;100.00
9277;BME280;4676;42.678;23.244;2022-12-29T12:43:43;94843.63;;;9.00;100.00
9277;BME280;4676;42.678;23.244;2022-12-29T12:46:23;94845.25;;;9.03;100.00
9277;BME280;4676;42.678;23.244;2022-12-29T12:49:07;94842.41;;;9.17;100.00
9277;BME280;4676;42.678;23.244;2022-12-29T12:51:48;94838.69;;;9.31;100.00
9277;BME280;4676;42.678;23.244;2022-12-29T12:54:30;94841.25;;;9.30;100.00
9277;BME280;4676;42.678;23.244;2022-12-29T12:57:10;94839.13;;;9.13;100.00
9277;BME280;4676;42.678;23.244;2022-12-29T12:59:49;94847.53;;;9.14;100.00
9277;BME280;4676;42.678;23.244;2022-12-29T13:02:30;94849.84;;;9.24;100.00
9277;BME280;4676;42.678;23.244;2022-12-29T13:05:13;94842.25;;;9.23;100.00
9277;BME280;4676;42.678;23.244;2022-12-29T13:07:50;94833.50;;;9.37;100.00
9277;BME280;4676;42.678;23.244;2022-12-29T13:10:32;94828.47;;;9.36;100.00
9277;BME280;4676;42.678;23.244;2022-12-29T13:13:19;94831.81;;;9.38;100.00
9277;BME280;4676;42.678;23.244;2022-12-29T13:15:58;94836.31;;;9.25;100.00
9277;BME280;4676;42.678;23.244;2022-12-29T13:18:32;94840.41;;;9.29;100.00
9277;BME280;4676;42.678;23.244;2022-12-29T13:21:06;94838.84;;;9.25;100.00
9277;BME280;4676;42.678;23.244;2022-12-29T13:23:40;94843.72;;;9.33;100.00
9277;BME280;4676;42.678;23.244;2022-12-29T13:26:12;94846.88;;;9.42;100.00
9277;BME280;4676;42.678;23.244;2022-12-29T13:28:51;94847.75;;;9.40;100.00
9277;BME280;4676;42.678;23.244;2022-12-29T13:31:26;94847.84;;;9.37;100.00
9277;BME280;4676;42.678;23.244;2022-12-29T13:34:00;94849.59;;;9.35;100.00
9277;BME280;4676;42.678;23.244;2022-12-29T13:36:36;94849.28;;;9.47;100.00